sensor_id;sensor_type;location;lat;lon;timestamp;P1;durP1;ratioP1;P2;durP2;ratioP2
6121;SDS011;3091;51.506;7.672;2023-04-25T00:01:39;20.73;;;19.73;;
6121;SDS011;3091;51.506;7.672;2023-04-25T00:04:05;20.83;;;19.83;;
6121;SDS011;3091;51.506;7.672;2023-04-25T00:06:31;19.90;;;19.00;;
6121;SDS011;3091;51.506;7.672;2023-04-25T00:08:57;20.63;;;19.63;;
6121;SDS011;3091;51.506;7.672;2023-04-25T00:11:24;20.17;;;19.27;;
6121;SDS011;3091;51.506;7.672;2023-04-25T00:13:50;21.03;;;19.70;;
6121;SDS011;3091;51.506;7.672;2023-04-25T00:16:16;21.50;;;20.43;;
6121;SDS011;3091;51.506;7.672;2023-04-25T00:18:42;20.60;;;19.63;;
6121;SDS011;3091;51.506;7.672;2023-04-25T00:21:08;19.87;;;18.93;;
6121;SDS011;3091;51.506;7.672;2023-04-25T00:23:34;20.53;;;19.40;;
6121;SDS011;3091;51.506;7.672;2023-04-25T00:26:01;21.07;;;19.87;;
6121;SDS011;3091;51.506;7.672;2023-04-25T00:28:27;19.60;;;18.70;;
6121;SDS011;3091;51.506;7.672;2023-04-25T00:30:53;20.47;;;19.47;;
6121;SDS011;3091;51.506;7.672;2023-04-25T00:33:19;20.47;;;19.57;;
6121;SDS011;3091;51.506;7.672;2023-04-25T00:35:46;20.37;;;18.80;;
6121;SDS011;3091;51.506;7.672;2023-04-25T00:38:12;20.27;;;19.27;;
6121;SDS011;3091;51.506;7.672;2023-04-25T00:40:38;19.70;;;18.87;;
6121;SDS011;3091;51.506;7.672;2023-04-25T00:43:04;20.77;;;19.40;;
6121;SDS011;3091;51.506;7.672;2023-04-25T00:45:30;19.00;;;18.20;;
6121;SDS011;3091;51.506;7.672;2023-04-25T00:47:56;19.30;;;18.50;;
6121;SDS011;3091;51.506;7.672;2023-04-25T00:50:23;22.17;;;21.23;;
6121;SDS011;3091;51.506;7.672;2023-04-25T00:52:49;20.97;;;19.50;;
6121;SDS011;3091;51.506;7.672;2023-04-25T00:55:16;19.23;;;18.43;;
6121;SDS011;3091;51.506;7.672;2023-04-25T00:57:42;18.97;;;18.07;;
6121;SDS011;3091;51.506;7.672;2023-04-25T01:00:08;20.87;;;19.77;;
6121;SDS011;3091;51.506;7.672;2023-04-25T01:02:35;20.03;;;19.13;;
6121;SDS011;3091;51.506;7.672;2023-04-25T01:05:02;19.40;;;18.60;;
6121;SDS011;3091;51.506;7.672;2023-04-25T01:07:28;19.27;;;18.40;;
6121;SDS011;3091;51.506;7.672;2023-04-25T01:09:55;21.63;;;20.33;;
6121;SDS011;3091;51.506;7.672;2023-04-25T01:12:21;19.80;;;18.90;;
6121;SDS011;3091;51.506;7.672;2023-04-25T01:14:47;19.90;;;19.00;;
6121;SDS011;3091;51.506;7.672;2023-04-25T01:17:13;19.27;;;18.37;;
6121;SDS011;3091;51.506;7.672;2023-04-25T01:19:40;19.17;;;18.30;;
6121;SDS011;3091;51.506;7.672;2023-04-25T01:22:06;20.17;;;19.03;;
6121;SDS011;3091;51.506;7.672;2023-04-25T01:24:32;20.73;;;19.80;;
6121;SDS011;3091;51.506;7.672;2023-04-25T01:26:58;18.63;;;17.83;;
6121;SDS011;3091;51.506;7.672;2023-04-25T01:29:26;19.27;;;18.47;;
6121;SDS011;3091;51.506;7.672;2023-04-25T01:31:52;19.50;;;18.60;;
6121;SDS011;3091;51.506;7.672;2023-04-25T01:34:18;19.10;;;18.30;;
6121;SDS011;3091;51.506;7.672;2023-04-25T01:36:45;19.67;;;18.87;;
6121;SDS011;3091;51.506;7.672;2023-04-25T01:39:11;18.00;;;17.30;;
6121;SDS011;3091;51.506;7.672;2023-04-25T01:41:37;18.23;;;17.53;;
6121;SDS011;3091;51.506;7.672;2023-04-25T01:44:04;22.33;;;21.43;;
6121;SDS011;3091;51.506;7.672;2023-04-25T01:46:30;19.50;;;18.73;;
6121;SDS011;3091;51.506;7.672;2023-04-25T01:48:56;18.30;;;17.60;;
6121;SDS011;3091;51.506;7.672;2023-04-25T01:51:22;19.00;;;18.20;;
6121;SDS011;3091;51.506;7.672;2023-04-25T01:53:48;20.17;;;18.97;;
6121;SDS011;3091;51.506;7.672;2023-04-25T01:56:17;19.70;;;18.80;;
6121;SDS011;3091;51.506;7.672;2023-04-25T01:58:45;20.70;;;19.60;;
6121;SDS011;3091;51.506;7.672;2023-04-25T02:01:14;19.63;;;18.73;;
6121;SDS011;3091;51.506;7.672;2023-04-25T02:03:40;29.90;;;28.40;;
6121;SDS011;3091;51.506;7.672;2023-04-25T02:06:06;34.77;;;32.70;;
6121;SDS011;3091;51.506;7.672;2023-04-25T02:08:32;68.07;;;64.67;;
6121;SDS011;3091;51.506;7.672;2023-04-25T02:10:58;120.57;;;115.07;;
6121;SDS011;3091;51.506;7.672;2023-04-25T02:13:24;125.07;;;119.37;;
6121;SDS011;3091;51.506;7.672;2023-04-25T02:15:50;124.00;;;118.30;;
6121;SDS011;3091;51.506;7.672;2023-04-25T02:18:16;111.30;;;105.80;;
6121;SDS011;3091;51.506;7.672;2023-04-25T02:20:42;99.77;;;94.50;;
6121;SDS011;3091;51.506;7.672;2023-04-25T02:23:09;103.50;;;98.20;;
6121;SDS011;3091;51.506;7.672;2023-04-25T02:25:35;105.67;;;100.37;;
6121;SDS011;3091;51.506;7.672;2023-04-25T02:28:01;113.10;;;107.40;;
6121;SDS011;3091;51.506;7.672;2023-04-25T02:30:27;100.50;;;95.00;;
6121;SDS011;3091;51.506;7.672;2023-04-25T02:32:53;102.83;;;97.33;;
6121;SDS011;3091;51.506;7.672;2023-04-25T02:35:19;97.30;;;91.97;;
6121;SDS011;3091;51.506;7.672;2023-04-25T02:37:45;92.37;;;87.27;;
6121;SDS011;3091;51.506;7.672;2023-04-25T02:40:11;88.50;;;83.60;;
6121;SDS011;3091;51.506;7.672;2023-04-25T02:42:39;85.13;;;80.33;;
6121;SDS011;3091;51.506;7.672;2023-04-25T02:45:06;84.47;;;79.67;;
6121;SDS011;3091;51.506;7.672;2023-04-25T02:47:32;83.80;;;78.90;;
6121;SDS011;3091;51.506;7.672;2023-04-25T02:49:58;77.63;;;73.03;;
6121;SDS011;3091;51.506;7.672;2023-04-25T02:52:24;85.27;;;78.60;;
6121;SDS011;3091;51.506;7.672;2023-04-25T02:54:50;84.80;;;80.00;;
6121;SDS011;3091;51.506;7.672;2023-04-25T02:57:16;82.73;;;77.73;;
6121;SDS011;3091;51.506;7.672;2023-04-25T02:59:42;77.20;;;72.57;;
6121;SDS011;3091;51.506;7.672;2023-04-25T03:02:08;73.13;;;68.63;;
6121;SDS011;3091;51.506;7.672;2023-04-25T03:04:34;82.83;;;77.93;;
6121;SDS011;3091;51.506;7.672;2023-04-25T03:07:00;82.13;;;76.90;;
6121;SDS011;3091;51.506;7.672;2023-04-25T03:09:26;81.77;;;76.97;;
6121;SDS011;3091;51.506;7.672;2023-04-25T03:11:52;83.80;;;78.80;;
6121;SDS011;3091;51.506;7.672;2023-04-25T03:14:20;75.93;;;71.33;;
6121;SDS011;3091;51.506;7.672;2023-04-25T03:16:49;78.70;;;74.10;;
6121;SDS011;3091;51.506;7.672;2023-04-25T03:19:15;77.20;;;72.40;;
6121;SDS011;3091;51.506;7.672;2023-04-25T03:21:42;78.70;;;74.00;;
6121;SDS011;3091;51.506;7.672;2023-04-25T03:24:11;80.83;;;76.03;;
6121;SDS011;3091;51.506;7.672;2023-04-25T03:26:37;76.80;;;72.10;;
6121;SDS011;3091;51.506;7.672;2023-04-25T03:29:05;83.23;;;78.33;;
6121;SDS011;3091;51.506;7.672;2023-04-25T03:31:31;80.80;;;75.83;;
6121;SDS011;3091;51.506;7.672;2023-04-25T03:33:57;90.17;;;84.73;;
6121;SDS011;3091;51.506;7.672;2023-04-25T03:36:23;88.70;;;83.67;;
6121;SDS011;3091;51.506;7.672;2023-04-25T03:38:49;90.47;;;85.33;;
6121;SDS011;3091;51.506;7.672;2023-04-25T03:41:15;96.60;;;91.30;;
6121;SDS011;3091;51.506;7.672;2023-04-25T03:43:41;95.03;;;89.83;;
6121;SDS011;3091;51.506;7.672;2023-04-25T03:46:10;94.80;;;89.50;;
6121;SDS011;3091;51.506;7.672;2023-04-25T03:48:36;91.80;;;86.70;;
6121;SDS011;3091;51.506;7.672;2023-04-25T03:51:02;92.37;;;87.27;;
6121;SDS011;3091;51.506;7.672;2023-04-25T03:53:28;96.47;;;90.87;;
6121;SDS011;3091;51.506;7.672;2023-04-25T03:55:54;91.80;;;86.70;;
6121;SDS011;3091;51.506;7.672;2023-04-25T03:58:20;87.80;;;82.70;;
6121;SDS011;3091;51.506;7.672;2023-04-25T04:00:48;90.93;;;85.83;;
6121;SDS011;3091;51.506;7.672;2023-04-25T04:03:14;87.37;;;82.30;;
6121;SDS011;3091;51.506;7.672;2023-04-25T04:05:39;83.33;;;78.43;;
6121;SDS011;3091;51.506;7.672;2023-04-25T04:08:06;81.47;;;76.17;;
6121;SDS011;3091;51.506;7.672;2023-04-25T04:10:32;84.90;;;79.90;;
6121;SDS011;3091;51.506;7.672;2023-04-25T04:12:58;79.57;;;74.70;;
6121;SDS011;3091;51.506;7.672;2023-04-25T04:15:24;81.70;;;76.90;;
6121;SDS011;3091;51.506;7.672;2023-04-25T04:17:50;79.17;;;74.37;;
6121;SDS011;3091;51.506;7.672;2023-04-25T04:20:16;82.03;;;77.23;;
6121;SDS011;3091;51.506;7.672;2023-04-25T04:22:42;80.40;;;75.63;;
6121;SDS011;3091;51.506;7.672;2023-04-25T04:25:08;79.10;;;74.30;;
6121;SDS011;3091;51.506;7.672;2023-04-25T04:27:35;81.60;;;76.80;;
6121;SDS011;3091;51.506;7.672;2023-04-25T04:30:01;82.97;;;78.10;;
6121;SDS011;3091;51.506;7.672;2023-04-25T04:32:28;95.17;;;89.37;;
6121;SDS011;3091;51.506;7.672;2023-04-25T04:34:55;102.20;;;96.50;;
6121;SDS011;3091;51.506;7.672;2023-04-25T04:37:22;101.97;;;96.57;;
6121;SDS011;3091;51.506;7.672;2023-04-25T04:39:49;107.07;;;101.40;;
6121;SDS011;3091;51.506;7.672;2023-04-25T04:42:15;106.60;;;101.00;;
6121;SDS011;3091;51.506;7.672;2023-04-25T04:44:41;107.17;;;101.57;;
6121;SDS011;3091;51.506;7.672;2023-04-25T04:47:09;111.13;;;105.43;;
6121;SDS011;3091;51.506;7.672;2023-04-25T04:49:35;108.67;;;103.07;;
6121;SDS011;3091;51.506;7.672;2023-04-25T04:52:01;102.20;;;96.80;;
6121;SDS011;3091;51.506;7.672;2023-04-25T04:54:27;107.37;;;101.70;;
6121;SDS011;3091;51.506;7.672;2023-04-25T04:56:53;115.50;;;109.70;;
6121;SDS011;3091;51.506;7.672;2023-04-25T04:59:19;111.03;;;105.20;;
6121;SDS011;3091;51.506;7.672;2023-04-25T05:01:48;126.47;;;120.37;;
6121;SDS011;3091;51.506;7.672;2023-04-25T05:04:14;135.17;;;128.77;;
6121;SDS011;3091;51.506;7.672;2023-04-25T05:06:40;135.30;;;129.00;;
6121;SDS011;3091;51.506;7.672;2023-04-25T05:09:06;140.57;;;134.13;;
6121;SDS011;3091;51.506;7.672;2023-04-25T05:11:32;142.70;;;136.20;;
6121;SDS011;3091;51.506;7.672;2023-04-25T05:13:58;149.00;;;142.40;;
6121;SDS011;3091;51.506;7.672;2023-04-25T05:16:25;154.53;;;147.87;;
6121;SDS011;3091;51.506;7.672;2023-04-25T05:18:51;156.20;;;149.50;;
6121;SDS011;3091;51.506;7.672;2023-04-25T05:21:17;146.00;;;139.90;;
6121;SDS011;3091;51.506;7.672;2023-04-25T05:23:43;141.10;;;135.30;;
6121;SDS011;3091;51.506;7.672;2023-04-25T05:26:09;126.67;;;121.37;;
6121;SDS011;3091;51.506;7.672;2023-04-25T05:28:38;120.10;;;115.17;;
6121;SDS011;3091;51.506;7.672;2023-04-25T05:31:05;90.83;;;86.83;;
6121;SDS011;3091;51.506;7.672;2023-04-25T05:33:31;71.43;;;68.17;;
6121;SDS011;3091;51.506;7.672;2023-04-25T05:35:57;64.33;;;61.33;;
6121;SDS011;3091;51.506;7.672;2023-04-25T05:38:23;50.23;;;47.83;;
6121;SDS011;3091;51.506;7.672;2023-04-25T05:40:49;47.17;;;44.97;;
6121;SDS011;3091;51.506;7.672;2023-04-25T05:43:15;45.33;;;43.23;;
6121;SDS011;3091;51.506;7.672;2023-04-25T05:45:41;43.80;;;41.80;;
6121;SDS011;3091;51.506;7.672;2023-04-25T05:48:07;37.20;;;35.40;;
6121;SDS011;3091;51.506;7.672;2023-04-25T05:50:33;31.80;;;30.30;;
6121;SDS011;3091;51.506;7.672;2023-04-25T05:53:00;29.33;;;27.97;;
6121;SDS011;3091;51.506;7.672;2023-04-25T05:55:26;27.17;;;25.80;;
6121;SDS011;3091;51.506;7.672;2023-04-25T05:57:52;25.20;;;23.97;;
6121;SDS011;3091;51.506;7.672;2023-04-25T06:00:18;23.70;;;22.40;;
6121;SDS011;3091;51.506;7.672;2023-04-25T06:02:44;21.57;;;20.67;;
6121;SDS011;3091;51.506;7.672;2023-04-25T06:05:10;22.07;;;21.07;;
6121;SDS011;3091;51.506;7.672;2023-04-25T06:07:36;20.63;;;19.73;;
6121;SDS011;3091;51.506;7.672;2023-04-25T06:10:02;20.47;;;19.57;;
6121;SDS011;3091;51.506;7.672;2023-04-25T06:12:31;19.80;;;19.00;;
6121;SDS011;3091;51.506;7.672;2023-04-25T06:14:57;18.03;;;17.33;;
6121;SDS011;3091;51.506;7.672;2023-04-25T06:17:23;18.80;;;18.00;;
6121;SDS011;3091;51.506;7.672;2023-04-25T06:19:49;17.00;;;16.30;;
6121;SDS011;3091;51.506;7.672;2023-04-25T06:22:15;17.00;;;15.90;;
6121;SDS011;3091;51.506;7.672;2023-04-25T06:24:41;15.43;;;14.83;;
6121;SDS011;3091;51.506;7.672;2023-04-25T06:27:07;14.87;;;14.37;;
6121;SDS011;3091;51.506;7.672;2023-04-25T06:29:33;15.50;;;14.70;;
6121;SDS011;3091;51.506;7.672;2023-04-25T06:31:59;15.20;;;14.60;;
6121;SDS011;3091;51.506;7.672;2023-04-25T06:34:25;14.70;;;14.20;;
6121;SDS011;3091;51.506;7.672;2023-04-25T06:36:51;16.80;;;15.57;;
6121;SDS011;3091;51.506;7.672;2023-04-25T06:39:17;16.17;;;15.47;;
6121;SDS011;3091;51.506;7.672;2023-04-25T06:41:45;14.60;;;14.10;;
6121;SDS011;3091;51.506;7.672;2023-04-25T06:44:11;15.33;;;14.60;;
6121;SDS011;3091;51.506;7.672;2023-04-25T06:46:39;15.67;;;15.07;;
6121;SDS011;3091;51.506;7.672;2023-04-25T06:49:05;15.90;;;15.20;;
6121;SDS011;3091;51.506;7.672;2023-04-25T06:51:31;15.07;;;14.47;;
6121;SDS011;3091;51.506;7.672;2023-04-25T06:53:57;15.03;;;14.43;;
6121;SDS011;3091;51.506;7.672;2023-04-25T06:56:23;15.07;;;14.47;;
6121;SDS011;3091;51.506;7.672;2023-04-25T06:58:49;14.20;;;13.70;;
6121;SDS011;3091;51.506;7.672;2023-04-25T07:01:18;13.47;;;13.07;;
6121;SDS011;3091;51.506;7.672;2023-04-25T07:03:44;12.53;;;12.13;;
6121;SDS011;3091;51.506;7.672;2023-04-25T07:06:10;12.30;;;11.90;;
6121;SDS011;3091;51.506;7.672;2023-04-25T07:08:36;11.40;;;11.00;;
6121;SDS011;3091;51.506;7.672;2023-04-25T07:11:02;11.40;;;11.00;;
6121;SDS011;3091;51.506;7.672;2023-04-25T07:13:30;11.63;;;11.03;;
6121;SDS011;3091;51.506;7.672;2023-04-25T07:15:56;10.63;;;10.33;;
6121;SDS011;3091;51.506;7.672;2023-04-25T07:18:22;11.80;;;11.40;;
6121;SDS011;3091;51.506;7.672;2023-04-25T07:20:48;13.23;;;12.73;;
6121;SDS011;3091;51.506;7.672;2023-04-25T07:23:14;11.00;;;10.70;;
6121;SDS011;3091;51.506;7.672;2023-04-25T07:25:40;11.50;;;11.10;;
6121;SDS011;3091;51.506;7.672;2023-04-25T07:28:06;10.60;;;10.30;;
6121;SDS011;3091;51.506;7.672;2023-04-25T07:30:33;10.90;;;10.60;;
6121;SDS011;3091;51.506;7.672;2023-04-25T07:32:59;11.23;;;10.73;;
6121;SDS011;3091;51.506;7.672;2023-04-25T07:35:26;11.77;;;11.27;;
6121;SDS011;3091;51.506;7.672;2023-04-25T07:37:52;12.20;;;11.80;;
6121;SDS011;3091;51.506;7.672;2023-04-25T07:40:19;13.50;;;13.00;;
6121;SDS011;3091;51.506;7.672;2023-04-25T07:42:45;12.20;;;11.80;;
6121;SDS011;3091;51.506;7.672;2023-04-25T07:45:11;12.10;;;11.70;;
6121;SDS011;3091;51.506;7.672;2023-04-25T07:47:40;11.80;;;11.40;;
6121;SDS011;3091;51.506;7.672;2023-04-25T07:50:07;12.20;;;11.80;;
6121;SDS011;3091;51.506;7.672;2023-04-25T07:52:33;12.00;;;11.60;;
6121;SDS011;3091;51.506;7.672;2023-04-25T07:54:59;13.63;;;13.13;;
6121;SDS011;3091;51.506;7.672;2023-04-25T07:57:25;12.13;;;11.73;;
6121;SDS011;3091;51.506;7.672;2023-04-25T07:59:55;13.63;;;13.10;;
6121;SDS011;3091;51.506;7.672;2023-04-25T08:02:21;12.50;;;12.10;;
6121;SDS011;3091;51.506;7.672;2023-04-25T08:04:48;11.97;;;11.57;;
6121;SDS011;3091;51.506;7.672;2023-04-25T08:07:14;12.00;;;11.60;;
6121;SDS011;3091;51.506;7.672;2023-04-25T08:09:40;12.30;;;11.90;;
6121;SDS011;3091;51.506;7.672;2023-04-25T08:12:06;11.80;;;11.40;;
6121;SDS011;3091;51.506;7.672;2023-04-25T08:14:32;12.20;;;11.80;;
6121;SDS011;3091;51.506;7.672;2023-04-25T08:17:02;12.37;;;11.97;;
6121;SDS011;3091;51.506;7.672;2023-04-25T08:19:28;12.27;;;11.87;;
6121;SDS011;3091;51.506;7.672;2023-04-25T08:21:55;13.00;;;12.50;;
6121;SDS011;3091;51.506;7.672;2023-04-25T08:24:22;12.20;;;11.80;;
6121;SDS011;3091;51.506;7.672;2023-04-25T08:26:48;12.17;;;11.77;;
6121;SDS011;3091;51.506;7.672;2023-04-25T08:29:14;12.50;;;12.10;;
6121;SDS011;3091;51.506;7.672;2023-04-25T08:31:40;11.10;;;10.73;;
6121;SDS011;3091;51.506;7.672;2023-04-25T08:34:06;12.73;;;12.23;;
6121;SDS011;3091;51.506;7.672;2023-04-25T08:36:32;11.63;;;11.23;;
6121;SDS011;3091;51.506;7.672;2023-04-25T08:38:58;12.00;;;11.60;;
6121;SDS011;3091;51.506;7.672;2023-04-25T08:41:24;11.70;;;11.30;;
6121;SDS011;3091;51.506;7.672;2023-04-25T08:43:51;12.57;;;11.90;;
6121;SDS011;3091;51.506;7.672;2023-04-25T08:46:17;11.90;;;11.50;;
6121;SDS011;3091;51.506;7.672;2023-04-25T08:48:44;11.83;;;11.43;;
6121;SDS011;3091;51.506;7.672;2023-04-25T08:51:13;13.20;;;12.70;;
6121;SDS011;3091;51.506;7.672;2023-04-25T08:53:40;13.17;;;12.67;;
6121;SDS011;3091;51.506;7.672;2023-04-25T08:56:07;12.60;;;12.20;;
6121;SDS011;3091;51.506;7.672;2023-04-25T08:58:34;12.30;;;11.90;;
6121;SDS011;3091;51.506;7.672;2023-04-25T09:01:01;12.80;;;12.40;;
6121;SDS011;3091;51.506;7.672;2023-04-25T09:03:27;12.00;;;11.60;;
6121;SDS011;3091;51.506;7.672;2023-04-25T09:05:53;12.00;;;11.60;;
6121;SDS011;3091;51.506;7.672;2023-04-25T09:08:19;11.47;;;11.07;;
6121;SDS011;3091;51.506;7.672;2023-04-25T09:10:45;12.50;;;12.00;;
6121;SDS011;3091;51.506;7.672;2023-04-25T09:13:12;12.20;;;11.80;;
6121;SDS011;3091;51.506;7.672;2023-04-25T09:15:53;12.20;;;11.80;;
6121;SDS011;3091;51.506;7.672;2023-04-25T09:18:26;12.67;;;12.27;;
6121;SDS011;3091;51.506;7.672;2023-04-25T09:20:54;12.43;;;12.03;;
6121;SDS011;3091;51.506;7.672;2023-04-25T09:23:21;12.00;;;11.60;;
6121;SDS011;3091;51.506;7.672;2023-04-25T09:25:48;12.10;;;11.70;;
6121;SDS011;3091;51.506;7.672;2023-04-25T09:28:14;12.00;;;11.60;;
6121;SDS011;3091;51.506;7.672;2023-04-25T09:30:41;12.37;;;11.90;;
6121;SDS011;3091;51.506;7.672;2023-04-25T09:33:07;12.87;;;12.37;;
6121;SDS011;3091;51.506;7.672;2023-04-25T09:35:37;12.30;;;11.90;;
6121;SDS011;3091;51.506;7.672;2023-04-25T09:38:13;11.80;;;11.40;;
6121;SDS011;3091;51.506;7.672;2023-04-25T09:40:49;11.63;;;11.23;;
6121;SDS011;3091;51.506;7.672;2023-04-25T09:43:21;11.83;;;11.43;;
6121;SDS011;3091;51.506;7.672;2023-04-25T09:45:47;11.77;;;11.37;;
6121;SDS011;3091;51.506;7.672;2023-04-25T09:48:18;13.33;;;12.63;;
6121;SDS011;3091;51.506;7.672;2023-04-25T09:50:45;12.30;;;11.90;;
6121;SDS011;3091;51.506;7.672;2023-04-25T09:53:11;12.90;;;12.40;;
6121;SDS011;3091;51.506;7.672;2023-04-25T09:55:37;12.60;;;12.20;;
6121;SDS011;3091;51.506;7.672;2023-04-25T09:58:04;12.30;;;11.90;;
6121;SDS011;3091;51.506;7.672;2023-04-25T10:00:32;12.43;;;12.03;;
6121;SDS011;3091;51.506;7.672;2023-04-25T10:02:58;13.07;;;12.47;;
6121;SDS011;3091;51.506;7.672;2023-04-25T10:05:28;12.23;;;11.83;;
6121;SDS011;3091;51.506;7.672;2023-04-25T10:07:57;12.03;;;11.63;;
6121;SDS011;3091;51.506;7.672;2023-04-25T10:10:23;12.30;;;11.90;;
6121;SDS011;3091;51.506;7.672;2023-04-25T10:12:52;12.23;;;11.83;;
6121;SDS011;3091;51.506;7.672;2023-04-25T10:15:19;12.47;;;12.07;;
6121;SDS011;3091;51.506;7.672;2023-04-25T10:17:45;12.40;;;12.00;;
6121;SDS011;3091;51.506;7.672;2023-04-25T10:20:11;12.20;;;11.80;;
6121;SDS011;3091;51.506;7.672;2023-04-25T10:22:45;11.90;;;11.50;;
6121;SDS011;3091;51.506;7.672;2023-04-25T10:25:13;12.30;;;11.90;;
6121;SDS011;3091;51.506;7.672;2023-04-25T10:27:40;12.97;;;12.33;;
6121;SDS011;3091;51.506;7.672;2023-04-25T10:30:10;12.13;;;11.67;;
6121;SDS011;3091;51.506;7.672;2023-04-25T10:32:37;12.07;;;11.67;;
6121;SDS011;3091;51.506;7.672;2023-04-25T10:35:10;12.20;;;11.80;;
6121;SDS011;3091;51.506;7.672;2023-04-25T10:37:36;11.97;;;11.57;;
6121;SDS011;3091;51.506;7.672;2023-04-25T10:40:09;12.40;;;12.00;;
6121;SDS011;3091;51.506;7.672;2023-04-25T10:42:35;12.30;;;11.90;;
6121;SDS011;3091;51.506;7.672;2023-04-25T10:45:10;12.20;;;11.80;;
6121;SDS011;3091;51.506;7.672;2023-04-25T10:47:36;13.60;;;13.10;;
6121;SDS011;3091;51.506;7.672;2023-04-25T10:50:07;13.40;;;12.90;;
6121;SDS011;3091;51.506;7.672;2023-04-25T10:52:34;12.60;;;12.10;;
6121;SDS011;3091;51.506;7.672;2023-04-25T10:55:00;12.70;;;12.20;;
6121;SDS011;3091;51.506;7.672;2023-04-25T11:00:01;14.00;;;13.40;;
6121;SDS011;3091;51.506;7.672;2023-04-25T11:02:30;13.27;;;12.77;;
6121;SDS011;3091;51.506;7.672;2023-04-25T11:04:56;12.43;;;12.03;;
6121;SDS011;3091;51.506;7.672;2023-04-25T11:07:33;12.13;;;11.73;;
6121;SDS011;3091;51.506;7.672;2023-04-25T11:10:03;12.30;;;11.90;;
6121;SDS011;3091;51.506;7.672;2023-04-25T11:12:32;12.03;;;11.63;;
6121;SDS011;3091;51.506;7.672;2023-04-25T11:14:59;12.40;;;12.00;;
6121;SDS011;3091;51.506;7.672;2023-04-25T11:17:26;12.50;;;12.00;;
6121;SDS011;3091;51.506;7.672;2023-04-25T11:19:52;12.90;;;12.40;;
6121;SDS011;3091;51.506;7.672;2023-04-25T11:22:20;12.50;;;12.10;;
6121;SDS011;3091;51.506;7.672;2023-04-25T11:24:47;13.67;;;13.17;;
6121;SDS011;3091;51.506;7.672;2023-04-25T11:27:13;13.03;;;12.53;;
6121;SDS011;3091;51.506;7.672;2023-04-25T11:29:40;12.70;;;12.27;;
6121;SDS011;3091;51.506;7.672;2023-04-25T11:32:06;12.47;;;12.07;;
6121;SDS011;3091;51.506;7.672;2023-04-25T11:34:32;14.00;;;13.40;;
6121;SDS011;3091;51.506;7.672;2023-04-25T11:37:07;12.20;;;11.80;;
6121;SDS011;3091;51.506;7.672;2023-04-25T11:39:34;12.50;;;12.10;;
6121;SDS011;3091;51.506;7.672;2023-04-25T11:42:00;12.70;;;12.30;;
6121;SDS011;3091;51.506;7.672;2023-04-25T11:44:26;13.53;;;12.73;;
6121;SDS011;3091;51.506;7.672;2023-04-25T11:46:53;12.40;;;12.00;;
6121;SDS011;3091;51.506;7.672;2023-04-25T11:49:20;14.97;;;13.63;;
6121;SDS011;3091;51.506;7.672;2023-04-25T11:51:47;12.60;;;12.20;;
6121;SDS011;3091;51.506;7.672;2023-04-25T11:54:14;12.60;;;12.20;;
6121;SDS011;3091;51.506;7.672;2023-04-25T11:56:44;12.70;;;12.30;;
6121;SDS011;3091;51.506;7.672;2023-04-25T11:59:10;13.50;;;12.17;;
6121;SDS011;3091;51.506;7.672;2023-04-25T12:01:37;12.40;;;12.00;;
6121;SDS011;3091;51.506;7.672;2023-04-25T12:04:13;13.13;;;12.43;;
6121;SDS011;3091;51.506;7.672;2023-04-25T12:06:40;12.70;;;12.20;;
6121;SDS011;3091;51.506;7.672;2023-04-25T12:09:07;13.30;;;12.80;;
6121;SDS011;3091;51.506;7.672;2023-04-25T12:11:47;12.20;;;11.80;;
6121;SDS011;3091;51.506;7.672;2023-04-25T12:17:06;12.40;;;12.00;;
6121;SDS011;3091;51.506;7.672;2023-04-25T12:19:35;13.23;;;12.73;;
6121;SDS011;3091;51.506;7.672;2023-04-25T12:22:02;12.47;;;12.07;;
6121;SDS011;3091;51.506;7.672;2023-04-25T12:24:28;12.83;;;12.43;;
6121;SDS011;3091;51.506;7.672;2023-04-25T12:27:01;13.50;;;13.00;;
6121;SDS011;3091;51.506;7.672;2023-04-25T12:29:28;13.33;;;12.83;;
6121;SDS011;3091;51.506;7.672;2023-04-25T12:31:56;13.20;;;12.70;;
6121;SDS011;3091;51.506;7.672;2023-04-25T12:34:22;13.10;;;12.60;;
6121;SDS011;3091;51.506;7.672;2023-04-25T12:36:49;13.10;;;12.60;;
6121;SDS011;3091;51.506;7.672;2023-04-25T12:39:18;12.90;;;12.40;;
6121;SDS011;3091;51.506;7.672;2023-04-25T12:41:45;13.17;;;12.67;;
6121;SDS011;3091;51.506;7.672;2023-04-25T12:44:11;13.13;;;12.63;;
6121;SDS011;3091;51.506;7.672;2023-04-25T12:46:38;12.67;;;12.27;;
6121;SDS011;3091;51.506;7.672;2023-04-25T12:49:04;14.33;;;13.43;;
6121;SDS011;3091;51.506;7.672;2023-04-25T12:51:32;13.30;;;12.80;;
6121;SDS011;3091;51.506;7.672;2023-04-25T12:54:01;13.13;;;12.63;;
6121;SDS011;3091;51.506;7.672;2023-04-25T12:56:28;13.20;;;12.70;;
6121;SDS011;3091;51.506;7.672;2023-04-25T12:58:54;13.03;;;12.53;;
6121;SDS011;3091;51.506;7.672;2023-04-25T13:01:20;12.70;;;12.30;;
6121;SDS011;3091;51.506;7.672;2023-04-25T13:03:47;13.20;;;12.70;;
6121;SDS011;3091;51.506;7.672;2023-04-25T13:06:13;13.70;;;13.10;;
6121;SDS011;3091;51.506;7.672;2023-04-25T13:08:42;13.20;;;12.70;;
6121;SDS011;3091;51.506;7.672;2023-04-25T13:11:08;13.97;;;13.40;;
6121;SDS011;3091;51.506;7.672;2023-04-25T13:13:34;13.20;;;12.60;;
6121;SDS011;3091;51.506;7.672;2023-04-25T13:16:01;13.30;;;12.80;;
6121;SDS011;3091;51.506;7.672;2023-04-25T13:18:28;13.10;;;12.60;;
6121;SDS011;3091;51.506;7.672;2023-04-25T13:20:54;13.20;;;12.70;;
6121;SDS011;3091;51.506;7.672;2023-04-25T13:23:20;13.20;;;12.70;;
6121;SDS011;3091;51.506;7.672;2023-04-25T13:25:46;13.10;;;12.60;;
6121;SDS011;3091;51.506;7.672;2023-04-25T13:28:12;13.30;;;12.80;;
6121;SDS011;3091;51.506;7.672;2023-04-25T13:30:38;13.80;;;13.10;;
6121;SDS011;3091;51.506;7.672;2023-04-25T13:33:04;12.60;;;12.20;;
6121;SDS011;3091;51.506;7.672;2023-04-25T13:35:31;12.80;;;12.10;;
6121;SDS011;3091;51.506;7.672;2023-04-25T13:37:58;13.00;;;12.50;;
6121;SDS011;3091;51.506;7.672;2023-04-25T13:40:24;13.27;;;12.77;;
6121;SDS011;3091;51.506;7.672;2023-04-25T13:42:50;13.10;;;12.60;;
6121;SDS011;3091;51.506;7.672;2023-04-25T13:45:16;13.23;;;12.73;;
6121;SDS011;3091;51.506;7.672;2023-04-25T13:47:42;13.10;;;12.60;;
6121;SDS011;3091;51.506;7.672;2023-04-25T13:50:08;13.10;;;12.60;;
6121;SDS011;3091;51.506;7.672;2023-04-25T13:52:34;13.07;;;12.57;;
6121;SDS011;3091;51.506;7.672;2023-04-25T13:55:01;13.40;;;12.90;;
6121;SDS011;3091;51.506;7.672;2023-04-25T13:57:28;13.10;;;12.60;;
6121;SDS011;3091;51.506;7.672;2023-04-25T13:59:55;14.20;;;13.50;;
6121;SDS011;3091;51.506;7.672;2023-04-25T14:02:21;13.20;;;12.70;;
6121;SDS011;3091;51.506;7.672;2023-04-25T14:04:47;13.00;;;12.50;;
6121;SDS011;3091;51.506;7.672;2023-04-25T14:07:13;12.67;;;12.27;;
6121;SDS011;3091;51.506;7.672;2023-04-25T14:09:42;12.70;;;12.30;;
6121;SDS011;3091;51.506;7.672;2023-04-25T14:12:09;12.73;;;12.33;;
6121;SDS011;3091;51.506;7.672;2023-04-25T14:14:38;12.83;;;12.33;;
6121;SDS011;3091;51.506;7.672;2023-04-25T14:17:04;12.57;;;12.17;;
6121;SDS011;3091;51.506;7.672;2023-04-25T14:19:31;12.57;;;12.17;;
6121;SDS011;3091;51.506;7.672;2023-04-25T14:21:57;12.90;;;12.40;;
6121;SDS011;3091;51.506;7.672;2023-04-25T14:24:23;12.50;;;12.00;;
6121;SDS011;3091;51.506;7.672;2023-04-25T14:26:50;13.00;;;12.50;;
6121;SDS011;3091;51.506;7.672;2023-04-25T14:29:16;12.27;;;11.87;;
6121;SDS011;3091;51.506;7.672;2023-04-25T14:31:42;12.40;;;12.00;;
6121;SDS011;3091;51.506;7.672;2023-04-25T14:34:08;12.90;;;12.40;;
6121;SDS011;3091;51.506;7.672;2023-04-25T14:36:35;12.60;;;12.20;;
6121;SDS011;3091;51.506;7.672;2023-04-25T14:39:01;12.73;;;12.27;;
6121;SDS011;3091;51.506;7.672;2023-04-25T14:41:28;13.67;;;12.97;;
6121;SDS011;3091;51.506;7.672;2023-04-25T14:43:54;13.00;;;12.50;;
6121;SDS011;3091;51.506;7.672;2023-04-25T14:46:21;18.60;;;13.20;;
6121;SDS011;3091;51.506;7.672;2023-04-25T14:48:48;12.70;;;12.30;;